createdAt,value
2022-08-02T00:00:44.296Z,20.17
2022-08-02T00:03:47.354Z,19.91
2022-08-02T00:06:50.121Z,19.71
2022-08-02T00:09:53.176Z,19.57
2022-08-02T00:12:55.940Z,19.48
2022-08-02T00:15:59.291Z,19.32
2022-08-02T00:19:01.962Z,19.33
2022-08-02T00:22:05.121Z,19.39
2022-08-02T00:25:08.096Z,19.48
2022-08-02T00:28:13.908Z,19.58
2022-08-02T00:31:17.613Z,19.48
2022-08-02T00:34:28.906Z,19.25
2022-08-02T00:37:32.733Z,18.95
2022-08-02T00:40:35.782Z,18.70
2022-08-02T00:43:38.486Z,18.76
2022-08-02T00:46:42.006Z,18.74
2022-08-02T00:49:44.734Z,19.07
2022-08-02T00:52:47.722Z,19.06
2022-08-02T00:55:50.448Z,18.98
2022-08-02T00:58:53.506Z,19.00
2022-08-02T01:01:58.352Z,18.90
2022-08-02T01:05:03.398Z,18.96
2022-08-02T01:08:07.413Z,18.95
2022-08-02T01:11:10.434Z,18.87
2022-08-02T01:14:15.467Z,18.92
2022-08-02T01:17:44.722Z,18.89
2022-08-02T01:21:04.941Z,18.93
2022-08-02T01:24:23.415Z,18.76
2022-08-02T01:27:55.259Z,18.30
2022-08-02T01:31:16.692Z,18.51
2022-08-02T01:34:47.298Z,18.51
2022-08-02T01:37:57.469Z,18.52
2022-08-02T01:41:03.623Z,18.51
2022-08-02T01:44:09.400Z,18.17
2022-08-02T01:47:18.239Z,18.17
2022-08-02T01:50:27.712Z,18.26
2022-08-02T01:53:31.998Z,18.26
2022-08-02T01:56:36.068Z,18.21
2022-08-02T01:59:41.102Z,18.32
2022-08-02T02:02:47.746Z,18.41
2022-08-02T02:05:52.914Z,18.51
2022-08-02T02:08:58.031Z,18.62
2022-08-02T02:12:06.429Z,18.60
2022-08-02T02:15:16.384Z,18.34
2022-08-02T02:18:24.492Z,18.27
2022-08-02T02:21:27.204Z,18.43
2022-08-02T02:24:30.834Z,18.54
2022-08-02T02:27:37.026Z,18.32
2022-08-02T02:30:46.070Z,18.07
2022-08-02T02:33:59.548Z,18.06
2022-08-02T02:37:05.160Z,18.25
2022-08-02T02:40:09.558Z,18.10
2022-08-02T02:43:14.392Z,18.15
2022-08-02T02:46:19.515Z,18.19
2022-08-02T02:49:24.519Z,18.17
2022-08-02T02:52:27.479Z,18.13
2022-08-02T02:55:32.154Z,18.11
2022-08-02T02:58:35.276Z,18.06
2022-08-02T03:01:56.551Z,18.22
2022-08-02T03:05:05.328Z,18.27
2022-08-02T03:08:08.960Z,18.30
2022-08-02T03:11:12.635Z,18.27
2022-08-02T03:14:16.620Z,18.23
2022-08-02T03:17:19.484Z,18.11
2022-08-02T03:20:25.747Z,18.15
2022-08-02T03:23:28.863Z,18.20
2022-08-02T03:26:31.877Z,18.16
2022-08-02T03:29:34.978Z,18.18
2022-08-02T03:32:40.097Z,17.79
2022-08-02T03:35:44.552Z,17.66
2022-08-02T03:38:48.215Z,17.47
2022-08-02T03:41:51.486Z,17.50
2022-08-02T03:44:55.834Z,17.47
2022-08-02T03:47:59.539Z,17.37
2022-08-02T03:51:03.724Z,17.17
2022-08-02T03:54:06.813Z,17.23
2022-08-02T03:57:10.616Z,17.26
2022-08-02T04:00:19.505Z,17.25
2022-08-02T04:03:22.647Z,17.26
2022-08-02T04:06:27.285Z,17.27
2022-08-02T04:09:31.616Z,17.35
2022-08-02T04:12:34.358Z,17.27
2022-08-02T04:15:38.706Z,17.23
2022-08-02T04:18:50.605Z,17.31
2022-08-02T04:21:55.817Z,17.43
2022-08-02T04:25:02.076Z,17.52
2022-08-02T04:28:17.260Z,17.66
2022-08-02T04:31:22.341Z,17.83
2022-08-02T04:34:25.691Z,18.11
2022-08-02T04:37:28.578Z,18.25
2022-08-02T04:40:31.601Z,18.37
2022-08-02T04:43:34.384Z,18.49
2022-08-02T04:46:38.057Z,18.64
2022-08-02T04:49:40.809Z,18.70
2022-08-02T04:52:45.921Z,18.79
2022-08-02T04:55:48.707Z,18.90
2022-08-02T04:58:51.713Z,18.92
2022-08-02T05:01:54.772Z,19.03
2022-08-02T05:04:57.948Z,19.12
2022-08-02T05:08:00.759Z,19.22
2022-08-02T05:11:03.914Z,19.27
2022-08-02T05:14:06.737Z,19.19
2022-08-02T05:17:09.691Z,19.25
2022-08-02T05:20:15.761Z,19.44
2022-08-02T05:23:18.717Z,19.74
2022-08-02T05:26:21.710Z,20.02
2022-08-02T05:29:24.767Z,20.62
2022-08-02T05:32:27.462Z,21.30
2022-08-02T05:35:30.850Z,21.61
2022-08-02T05:38:37.043Z,21.66
2022-08-02T05:41:40.628Z,21.98
2022-08-02T05:44:43.307Z,22.14
2022-08-02T05:47:46.443Z,22.40
2022-08-02T05:50:53.729Z,22.76
2022-08-02T05:54:10.991Z,23.08
2022-08-02T05:57:35.239Z,23.39
2022-08-02T06:00:50.315Z,23.92
2022-08-02T06:03:56.817Z,23.99
2022-08-02T06:07:07.297Z,23.99
2022-08-02T06:10:14.971Z,24.02
2022-08-02T06:13:17.796Z,24.56
2022-08-02T06:16:32.586Z,24.79
2022-08-02T06:19:51.448Z,24.82
2022-08-02T06:22:58.903Z,24.63
2022-08-02T06:26:03.906Z,24.56
2022-08-02T06:29:07.853Z,24.27
2022-08-02T06:32:11.337Z,24.72
2022-08-02T06:35:14.703Z,24.76
2022-08-02T06:38:27.583Z,24.88
2022-08-02T06:41:42.612Z,25.14
2022-08-02T06:44:51.895Z,25.45
2022-08-02T06:47:58.519Z,26.10
2022-08-02T06:51:05.448Z,26.52
2022-08-02T06:54:08.510Z,26.52
2022-08-02T06:57:11.241Z,26.90
2022-08-02T07:00:14.731Z,26.78
2022-08-02T07:03:18.160Z,26.94
2022-08-02T07:06:21.110Z,26.59
2022-08-02T07:09:23.862Z,26.85
2022-08-02T07:12:27.536Z,27.27
2022-08-02T07:15:30.407Z,27.04
2022-08-02T07:18:35.152Z,27.98
2022-08-02T07:21:57.824Z,27.83
2022-08-02T07:25:00.890Z,28.24
2022-08-02T07:28:04.136Z,28.16
2022-08-02T07:31:07.163Z,28.27
2022-08-02T07:34:09.948Z,28.29
2022-08-02T07:37:34.987Z,28.51
2022-08-02T07:40:37.048Z,29.07
2022-08-02T07:43:40.085Z,28.73
2022-08-02T07:46:42.797Z,29.13
2022-08-02T07:49:45.789Z,28.75
2022-08-02T07:52:49.596Z,29.18
2022-08-02T07:56:00.235Z,29.62
2022-08-02T07:59:03.989Z,29.85
2022-08-02T08:02:07.132Z,29.98
2022-08-02T08:05:10.366Z,30.59
2022-08-02T08:08:17.375Z,30.60
2022-08-02T08:11:20.908Z,30.43
2022-08-02T08:14:23.645Z,30.33
2022-08-02T08:17:27.037Z,30.88
2022-08-02T08:20:29.732Z,31.61
2022-08-02T08:23:32.938Z,31.67
2022-08-02T08:26:35.639Z,31.54
2022-08-02T08:29:38.526Z,31.27
2022-08-02T08:32:41.263Z,31.65
2022-08-02T08:35:44.258Z,31.95
2022-08-02T08:38:48.022Z,32.13
2022-08-02T08:41:51.433Z,31.89
2022-08-02T08:44:57.318Z,32.21
2022-08-02T08:48:06.696Z,32.61
2022-08-02T08:51:16.826Z,32.59
2022-08-02T08:54:24.622Z,32.30
2022-08-02T08:57:30.280Z,33.05
2022-08-02T09:00:35.764Z,32.71
2022-08-02T09:03:38.469Z,32.63
2022-08-02T09:06:41.645Z,32.51
2022-08-02T09:09:44.330Z,33.08
2022-08-02T09:13:37.504Z,33.32
2022-08-02T09:16:40.886Z,32.71
2022-08-02T09:19:45.746Z,33.54
2022-08-02T09:23:09.240Z,33.29
2022-08-02T09:26:14.534Z,33.54
2022-08-02T09:29:18.631Z,33.61
2022-08-02T09:32:24.590Z,33.01
2022-08-02T09:36:05.978Z,33.57
2022-08-02T09:38:58.942Z,33.69
2022-08-02T09:42:10.984Z,33.57
2022-08-02T09:45:14.380Z,34.25
2022-08-02T09:48:17.149Z,34.41
2022-08-02T09:51:29.371Z,34.50
2022-08-02T09:54:33.148Z,34.62
2022-08-02T09:57:38.839Z,35.22
2022-08-02T10:00:56.358Z,34.82
2022-08-02T10:04:01.772Z,35.31
2022-08-02T10:07:05.215Z,34.65
2022-08-02T10:10:08.940Z,35.40
2022-08-02T10:13:11.815Z,33.61
2022-08-02T10:16:24.920Z,33.15
2022-08-02T10:20:03.475Z,32.20
2022-08-02T10:22:51.782Z,32.98
2022-08-02T10:26:00.260Z,33.94
2022-08-02T10:29:03.591Z,34.88
2022-08-02T10:32:11.133Z,34.02
2022-08-02T10:35:26.009Z,34.80
2022-08-02T10:38:29.891Z,35.93
2022-08-02T10:41:51.852Z,36.56
2022-08-02T10:45:10.427Z,35.44
2022-08-02T10:48:14.833Z,35.34
2022-08-02T10:51:17.621Z,35.81
2022-08-02T10:54:32.410Z,34.86
2022-08-02T10:57:38.109Z,33.45
2022-08-02T11:00:41.169Z,34.04
2022-08-02T11:03:45.240Z,34.55
2022-08-02T11:07:14.387Z,35.15
2022-08-02T11:10:39.644Z,34.37
2022-08-02T11:14:02.609Z,34.25
2022-08-02T11:17:17.288Z,34.26
2022-08-02T11:20:22.341Z,33.79
2022-08-02T11:23:44.861Z,34.00
2022-08-02T11:26:51.285Z,35.14
2022-08-02T11:29:53.931Z,35.41
2022-08-02T11:32:58.572Z,36.12
2022-08-02T11:36:03.947Z,36.15
2022-08-02T11:39:15.910Z,36.15
2022-08-02T11:42:18.843Z,35.00
2022-08-02T11:45:29.752Z,35.30
2022-08-02T11:48:32.712Z,35.06
2022-08-02T11:51:35.766Z,35.09
2022-08-02T11:54:40.954Z,35.54
2022-08-02T11:58:04.553Z,34.80
2022-08-02T12:01:06.906Z,35.15
2022-08-02T12:04:10.458Z,34.40
2022-08-02T12:07:14.929Z,33.82
2022-08-02T12:10:24.272Z,34.73
2022-08-02T12:13:26.924Z,34.40
2022-08-02T12:16:55.177Z,34.39
2022-08-02T12:19:59.195Z,33.40
2022-08-02T12:23:05.610Z,32.55
2022-08-02T12:26:15.922Z,33.79
2022-08-02T12:29:55.719Z,34.30
2022-08-02T12:33:12.969Z,34.92
2022-08-02T12:36:24.641Z,35.45
2022-08-02T12:39:43.259Z,35.40
2022-08-02T12:42:51.919Z,34.85
2022-08-02T12:45:58.701Z,35.14
2022-08-02T12:49:17.491Z,35.35
2022-08-02T12:52:22.796Z,35.99
2022-08-02T12:56:01.905Z,35.72
2022-08-02T12:58:52.238Z,35.48
2022-08-02T13:02:02.286Z,35.71
2022-08-02T13:05:05.876Z,35.86
2022-08-02T13:08:08.912Z,36.04
2022-08-02T13:11:11.674Z,36.18
2022-08-02T13:14:16.192Z,34.47
2022-08-02T13:17:19.112Z,34.38
2022-08-02T13:20:22.107Z,34.32
2022-08-02T13:23:54.291Z,33.96
2022-08-02T13:26:50.100Z,34.08
2022-08-02T13:29:54.314Z,33.62
2022-08-02T13:33:00.963Z,33.86
2022-08-02T13:36:05.043Z,34.11
2022-08-02T13:39:12.900Z,33.50
2022-08-02T13:42:16.876Z,32.88
2022-08-02T13:45:20.293Z,32.08
2022-08-02T13:48:26.682Z,32.53
2022-08-02T13:51:29.768Z,33.08
2022-08-02T13:54:32.804Z,33.30
2022-08-02T13:57:35.807Z,33.40
2022-08-02T14:00:38.585Z,33.20
2022-08-02T14:04:08.965Z,33.73
2022-08-02T14:07:06.229Z,33.55
2022-08-02T14:10:09.856Z,33.97
2022-08-02T14:13:12.640Z,34.03
2022-08-02T14:16:15.816Z,34.24
2022-08-02T14:19:18.565Z,34.03
2022-08-02T14:22:22.080Z,33.44
2022-08-02T14:25:26.214Z,33.52
2022-08-02T14:28:30.551Z,33.25
2022-08-02T14:31:33.293Z,32.82
2022-08-02T14:34:36.152Z,32.62
2022-08-02T14:37:38.878Z,32.34
2022-08-02T14:40:42.881Z,32.19
2022-08-02T14:44:04.085Z,32.19
2022-08-02T14:47:07.091Z,32.05
2022-08-02T14:50:11.268Z,31.74
2022-08-02T14:53:14.391Z,31.80
2022-08-02T14:56:17.089Z,31.60
2022-08-02T14:59:22.106Z,31.55
2022-08-02T15:02:26.442Z,31.52
2022-08-02T15:05:29.422Z,31.42
2022-08-02T15:08:32.163Z,31.40
2022-08-02T15:11:48.350Z,31.10
2022-08-02T15:14:52.467Z,31.03
2022-08-02T15:17:56.720Z,31.01
2022-08-02T15:20:59.409Z,30.86
2022-08-02T15:24:02.407Z,30.67
2022-08-02T15:27:05.043Z,30.59
2022-08-02T15:30:09.158Z,30.47
2022-08-02T15:33:12.787Z,30.44
2022-08-02T15:36:16.945Z,30.46
2022-08-02T15:39:19.831Z,30.47
2022-08-02T15:42:30.234Z,30.21
2022-08-02T15:45:35.359Z,30.14
2022-08-02T15:48:39.454Z,30.13
2022-08-02T15:51:42.008Z,30.08
2022-08-02T15:54:44.972Z,30.11
2022-08-02T15:57:47.684Z,30.00
2022-08-02T16:00:50.790Z,29.99
2022-08-02T16:03:53.858Z,30.02
2022-08-02T16:06:57.534Z,29.98
2022-08-02T16:10:04.944Z,29.88
2022-08-02T16:13:26.032Z,29.75
2022-08-02T16:16:31.959Z,29.73
2022-08-02T16:19:49.130Z,29.68
2022-08-02T16:22:53.518Z,29.62
2022-08-02T16:25:56.179Z,29.51
2022-08-02T16:29:00.632Z,29.47
2022-08-02T16:32:04.312Z,29.39
2022-08-02T16:35:09.189Z,29.32
2022-08-02T16:38:12.140Z,29.29
2022-08-02T16:41:16.372Z,29.26
2022-08-02T16:44:27.611Z,29.19
2022-08-02T16:47:43.466Z,29.13
2022-08-02T16:50:56.229Z,29.12
2022-08-02T16:54:01.138Z,29.00
2022-08-02T16:57:05.230Z,28.94
2022-08-02T17:00:10.361Z,28.84
2022-08-02T17:03:14.311Z,28.82
2022-08-02T17:06:18.346Z,28.76
2022-08-02T17:10:03.410Z,28.63
2022-08-02T17:12:44.525Z,28.56
2022-08-02T17:16:16.499Z,28.44
2022-08-02T17:19:18.071Z,28.33
2022-08-02T17:22:20.873Z,28.23
2022-08-02T17:25:24.772Z,28.17
2022-08-02T17:28:31.430Z,28.00
2022-08-02T17:31:42.908Z,28.00
2022-08-02T17:34:56.364Z,27.83
2022-08-02T17:38:03.113Z,27.78
2022-08-02T17:41:15.283Z,27.66
2022-08-02T17:44:37.215Z,27.57
2022-08-02T17:47:42.008Z,27.44
2022-08-02T17:50:48.851Z,27.26
2022-08-02T17:53:51.694Z,27.13
2022-08-02T17:56:54.944Z,27.03
2022-08-02T18:00:03.595Z,26.93
2022-08-02T18:03:07.898Z,26.78
2022-08-02T18:06:13.328Z,26.70
2022-08-02T18:09:17.677Z,26.58
2022-08-02T18:12:21.014Z,26.49
2022-08-02T18:15:23.798Z,26.38
2022-08-02T18:18:29.682Z,26.23
2022-08-02T18:21:33.106Z,26.13
2022-08-02T18:24:37.584Z,26.00
2022-08-02T18:27:41.944Z,25.83
2022-08-02T18:30:46.101Z,25.71
2022-08-02T18:33:58.636Z,25.60
2022-08-02T18:37:04.801Z,25.48
2022-08-02T18:40:09.985Z,25.42
2022-08-02T18:43:14.391Z,25.36
2022-08-02T18:46:21.095Z,25.31
2022-08-02T18:49:30.094Z,25.36
2022-08-02T18:52:54.240Z,25.26
2022-08-02T18:56:03.231Z,25.14
2022-08-02T18:59:07.754Z,25.15
2022-08-02T19:02:11.473Z,24.99
2022-08-02T19:05:14.552Z,24.94
2022-08-02T19:08:18.620Z,24.91
2022-08-02T19:11:21.609Z,24.87
2022-08-02T19:14:27.728Z,24.82
2022-08-02T19:17:53.872Z,24.71
2022-08-02T19:20:58.237Z,24.61
2022-08-02T19:24:04.836Z,24.44
2022-08-02T19:27:13.814Z,24.31
2022-08-02T19:30:18.948Z,24.30
2022-08-02T19:34:06.711Z,24.25
2022-08-02T19:36:48.800Z,24.16
2022-08-02T19:39:52.397Z,24.10
2022-08-02T19:44:24.725Z,24.01
2022-08-02T19:46:23.118Z,23.91
2022-08-02T19:49:39.921Z,23.70
2022-08-02T19:52:47.417Z,23.67
2022-08-02T19:55:59.802Z,23.42
2022-08-02T19:59:13.390Z,23.19
2022-08-02T20:02:18.410Z,22.89
2022-08-02T20:05:24.024Z,22.86
2022-08-02T20:08:31.627Z,22.83
2022-08-02T20:11:41.605Z,22.86
2022-08-02T20:14:51.301Z,22.93
2022-08-02T20:17:54.650Z,22.81
2022-08-02T20:20:58.669Z,22.79
2022-08-02T20:24:03.477Z,22.73
2022-08-02T20:27:16.322Z,22.68
2022-08-02T20:30:20.255Z,22.55
2022-08-02T20:33:29.359Z,22.46
2022-08-02T20:36:34.788Z,22.43
2022-08-02T20:39:43.114Z,22.47
2022-08-02T20:42:47.962Z,22.37
2022-08-02T20:45:51.241Z,21.94
2022-08-02T20:48:55.245Z,21.89
2022-08-02T20:52:02.179Z,21.95
2022-08-02T20:55:05.642Z,22.05
2022-08-02T20:58:11.829Z,21.88
2022-08-02T21:01:15.003Z,21.77
2022-08-02T21:04:19.240Z,21.66
2022-08-02T21:07:25.603Z,21.52
2022-08-02T21:10:29.677Z,21.61
2022-08-02T21:13:32.842Z,21.58
2022-08-02T21:16:35.977Z,21.62
2022-08-02T21:19:44.339Z,21.62
2022-08-02T21:22:47.067Z,21.61
2022-08-02T21:25:57.406Z,21.52
2022-08-02T21:29:03.465Z,21.41
2022-08-02T21:32:07.384Z,21.36
2022-08-02T21:35:10.869Z,21.23
2022-08-02T21:38:35.159Z,21.24
2022-08-02T21:41:46.210Z,20.95
2022-08-02T21:44:51.493Z,20.72
2022-08-02T21:47:54.043Z,20.77
2022-08-02T21:50:58.614Z,20.87
2022-08-02T21:54:17.407Z,20.76
2022-08-02T21:57:23.219Z,20.79
2022-08-02T22:00:28.791Z,20.53
2022-08-02T22:03:32.640Z,20.59
2022-08-02T22:06:35.745Z,20.57
2022-08-02T22:09:43.340Z,20.46
2022-08-02T22:12:48.281Z,20.27
2022-08-02T22:15:51.386Z,20.02
2022-08-02T22:18:55.088Z,20.27
2022-08-02T22:22:00.600Z,20.22
2022-08-02T22:25:04.207Z,20.16
2022-08-02T22:28:37.714Z,20.23
2022-08-02T22:31:40.831Z,20.29
2022-08-02T22:34:52.100Z,20.21
2022-08-02T22:38:14.569Z,20.07
2022-08-02T22:41:22.701Z,20.02
2022-08-02T22:44:25.319Z,19.79
2022-08-02T22:47:28.286Z,19.84
2022-08-02T22:50:41.406Z,19.77
2022-08-02T22:53:45.559Z,19.63
2022-08-02T22:56:48.206Z,19.93
2022-08-02T22:59:51.584Z,19.89
2022-08-02T23:02:55.558Z,19.83
2022-08-02T23:05:58.629Z,19.31
2022-08-02T23:09:01.297Z,19.23
2022-08-02T23:12:04.795Z,19.09
2022-08-02T23:15:09.217Z,19.11
2022-08-02T23:18:30.857Z,19.28
2022-08-02T23:22:01.391Z,19.39
2022-08-02T23:24:56.661Z,19.37
2022-08-02T23:27:59.347Z,19.27
2022-08-02T23:31:28.864Z,19.26
2022-08-02T23:34:31.484Z,19.48
2022-08-02T23:38:00.276Z,19.48
2022-08-02T23:40:58.099Z,19.48
2022-08-02T23:44:13.493Z,19.42
2022-08-02T23:47:17.459Z,19.64
2022-08-02T23:50:20.688Z,19.42
2022-08-02T23:53:23.309Z,19.40
2022-08-02T23:56:26.306Z,19.12
2022-08-02T23:59:29.942Z,19.05
